Buoy 46930

sailwx.info

Track history (hours):
 
Tides and Currents Weather Stations Pressure Air Temp Water Temp Dewpoint Dewpoint Depression Visibility Wind Speed Wind Dir Waves Ship Positions

Drifting buoy 46930

Last reported at 2015-Aug-05 06:00 UTC. Time now 2015-Aug-05 12:28 UTC.
Position N 15°24' W 132°30'.

Date/timePositionNaut miles runAvg speedWind from/ knotsBaromVisibWave heightAir tempDewpointWater temp
2015-Aug-05 06:00N 15°24' W 132°30'2 0.7
2015-Aug-05 03:00N 15°22' W 132°31'2 1.5
2015-Aug-05 02:00N 15°21' W 132°32'1 0.6
2015-Aug-05 00:00N 15°20' W 132°31'1 1.2
2015-Aug-04 23:00N 15°19' W 132°31'1 0.7
2015-Aug-04 21:00N 15°18' W 132°30'3 0.6
2015-Aug-04 17:00N 15°16' W 132°29'1 0.2
2015-Aug-04 12:00N 15°15' W 132°28'3 0.4
2015-Aug-04 05:00N 15°16' W 132°25'1 0.5
2015-Aug-04 02:00N 15°17' W 132°23'2 0.6
2015-Aug-03 22:00N 15°19' W 132°24'0 0.0
2015-Aug-03 20:00N 15°19' W 132°24'1 1.3
2015-Aug-03 19:00N 15°20' W 132°25'0 0.0
2015-Aug-03 18:00N 15°20' W 132°25'0 0.2
2015-Aug-03 17:00N 15°20' W 132°25'2 0.9
2015-Aug-03 15:00N 15°21' W 132°27'1 0.8
2015-Aug-03 14:00N 15°21' W 132°28'1 1.5
2015-Aug-03 13:00N 15°21' W 132°29'7 1.2
2015-Aug-03 07:00N 15°16' W 132°35'1 1.5
2015-Aug-03 06:00N 15°15' W 132°36'3 3.2
2015-Aug-03 05:00N 15°12' W 132°36'0 0.0
2015-Aug-03 04:00N 15°12' W 132°36'1 1.1
2015-Aug-03 03:00N 15°11' W 132°35'3 2.6
2015-Aug-03 02:00N 15°09' W 132°36'0 0.5
2015-Aug-03 01:00N 15°09' W 132°36'1 0.8
2015-Aug-03 00:00N 15°08' W 132°35'2 1.5
2015-Aug-02 23:00N 15°07' W 132°35'4 0.6
2015-Aug-02 17:00N 15°05' W 132°32'2 1.1
2015-Aug-02 15:00N 15°04' W 132°30'1 0.6
2015-Aug-02 14:00N 15°04' W 132°29'1 0.4
2015-Aug-02 10:00N 15°05' W 132°28'1 0.4
2015-Aug-02 07:00N 15°05' W 132°27'1 0.9
2015-Aug-02 06:00N 15°06' W 132°27'1 0.3
2015-Aug-02 03:00N 15°07' W 132°27'1 0.6
2015-Aug-02 02:00N 15°07' W 132°27'1 0.9
2015-Aug-02 01:00N 15°08' W 132°28'3 0.4
2015-Aug-01 19:00N 15°09' W 132°30'1 0.7
2015-Aug-01 17:00N 15°08' W 132°32'3 1.7
2015-Aug-01 15:00N 15°07' W 132°35'16 0.9
2015-Jul-31 22:00N 14°51' W 132°36'0 0.1
2015-Jul-31 20:00N 14°51' W 132°36'2 1.1
2015-Jul-31 18:00N 14°50' W 132°34'2 2.2
2015-Jul-31 17:00N 14°48' W 132°33'3 0.4
2015-Jul-31 11:00N 14°47' W 132°30'6 0.7
2015-Jul-31 03:00N 14°44' W 132°25'2 0.5
2015-Jul-30 23:00N 14°43' W 132°23'2 0.3
2015-Jul-30 17:00N 14°41' W 132°22'1 0.6
2015-Jul-30 15:00N 14°41' W 132°21'0 0.1
2015-Jul-30 14:00N 14°41' W 132°20'0 0.1
2015-Jul-30 13:00N 14°41' W 132°21'1 0.5
2015-Jul-30 11:00N 14°40' W 132°20'3 0.5
2015-Jul-30 05:00N 14°37' W 132°19'8 0.7
2015-Jul-29 18:00N 14°32' W 132°14'1 0.5
2015-Jul-29 16:00N 14°31' W 132°14'2 0.4
2015-Jul-29 11:00N 14°30' W 132°12'2 0.2
2015-Jul-29 00:00N 14°31' W 132°09'2 0.3
2015-Jul-28 15:00N 14°29' W 132°08'4 0.5
2015-Jul-28 07:00N 14°27' W 132°05'1 0.8
2015-Jul-28 06:00N 14°27' W 132°04'2 0.4
2015-Jul-28 02:00N 14°26' W 132°03'7 0.5
2015-Jul-27 12:00N 14°23' W 131°56'4 0.4
2015-Jul-27 02:00N 14°21' W 131°53'2 0.6
2015-Jul-26 23:00N 14°20' W 131°51'1 0.5
2015-Jul-26 21:00N 14°20' W 131°50'1 0.3
2015-Jul-26 17:00N 14°19' W 131°49'1 1.3
2015-Jul-26 16:00N 14°18' W 131°48'0 0.1
2015-Jul-26 15:00N 14°18' W 131°48'1 0.5
2015-Jul-26 13:00N 14°18' W 131°47'0 0.0
2015-Jul-26 12:00N 14°18' W 131°47'1 1.1
2015-Jul-26 11:00N 14°17' W 131°46'3 0.6
2015-Jul-26 06:00N 14°16' W 131°44'  
Track history (hours):
 
Tides and Currents Weather Stations Pressure Air Temp Water Temp Dewpoint Dewpoint Depression Visibility Wind Speed Wind Dir Waves Ship Positions

Drifting buoy 46930

Last reported at 2015-Aug-05 06:00 UTC. Time now 2015-Aug-05 12:28 UTC.
Position N 15°24' W 132°30'.

Date/timePositionNaut miles runAvg speedWind from/ knotsBaromVisibWave heightAir tempDewpointWater temp
2015-Aug-05 06:00N 15°24' W 132°30'2 0.7
2015-Aug-05 03:00N 15°22' W 132°31'2 1.5
2015-Aug-05 02:00N 15°21' W 132°32'1 0.6
2015-Aug-05 00:00N 15°20' W 132°31'1 1.2
2015-Aug-04 23:00N 15°19' W 132°31'1 0.7
2015-Aug-04 21:00N 15°18' W 132°30'3 0.6
2015-Aug-04 17:00N 15°16' W 132°29'1 0.2
2015-Aug-04 12:00N 15°15' W 132°28'3 0.4
2015-Aug-04 05:00N 15°16' W 132°25'1 0.5
2015-Aug-04 02:00N 15°17' W 132°23'2 0.6
2015-Aug-03 22:00N 15°19' W 132°24'0 0.0
2015-Aug-03 20:00N 15°19' W 132°24'1 1.3
2015-Aug-03 19:00N 15°20' W 132°25'0 0.0
2015-Aug-03 18:00N 15°20' W 132°25'0 0.2
2015-Aug-03 17:00N 15°20' W 132°25'2 0.9
2015-Aug-03 15:00N 15°21' W 132°27'1 0.8
2015-Aug-03 14:00N 15°21' W 132°28'1 1.5
2015-Aug-03 13:00N 15°21' W 132°29'7 1.2
2015-Aug-03 07:00N 15°16' W 132°35'1 1.5
2015-Aug-03 06:00N 15°15' W 132°36'3 3.2
2015-Aug-03 05:00N 15°12' W 132°36'0 0.0
2015-Aug-03 04:00N 15°12' W 132°36'1 1.1
2015-Aug-03 03:00N 15°11' W 132°35'3 2.6
2015-Aug-03 02:00N 15°09' W 132°36'0 0.5
2015-Aug-03 01:00N 15°09' W 132°36'1 0.8
2015-Aug-03 00:00N 15°08' W 132°35'2 1.5
2015-Aug-02 23:00N 15°07' W 132°35'4 0.6
2015-Aug-02 17:00N 15°05' W 132°32'2 1.1
2015-Aug-02 15:00N 15°04' W 132°30'1 0.6
2015-Aug-02 14:00N 15°04' W 132°29'1 0.4
2015-Aug-02 10:00N 15°05' W 132°28'1 0.4
2015-Aug-02 07:00N 15°05' W 132°27'1 0.9
2015-Aug-02 06:00N 15°06' W 132°27'1 0.3
2015-Aug-02 03:00N 15°07' W 132°27'1 0.6
2015-Aug-02 02:00N 15°07' W 132°27'1 0.9
2015-Aug-02 01:00N 15°08' W 132°28'3 0.4
2015-Aug-01 19:00N 15°09' W 132°30'1 0.7
2015-Aug-01 17:00N 15°08' W 132°32'3 1.7
2015-Aug-01 15:00N 15°07' W 132°35'16 0.9
2015-Jul-31 22:00N 14°51' W 132°36'0 0.1
2015-Jul-31 20:00N 14°51' W 132°36'2 1.1
2015-Jul-31 18:00N 14°50' W 132°34'2 2.2
2015-Jul-31 17:00N 14°48' W 132°33'3 0.4
2015-Jul-31 11:00N 14°47' W 132°30'6 0.7
2015-Jul-31 03:00N 14°44' W 132°25'2 0.5
2015-Jul-30 23:00N 14°43' W 132°23'2 0.3
2015-Jul-30 17:00N 14°41' W 132°22'1 0.6
2015-Jul-30 15:00N 14°41' W 132°21'0 0.1
2015-Jul-30 14:00N 14°41' W 132°20'0 0.1
2015-Jul-30 13:00N 14°41' W 132°21'1 0.5
2015-Jul-30 11:00N 14°40' W 132°20'3 0.5
2015-Jul-30 05:00N 14°37' W 132°19'8 0.7
2015-Jul-29 18:00N 14°32' W 132°14'1 0.5
2015-Jul-29 16:00N 14°31' W 132°14'2 0.4
2015-Jul-29 11:00N 14°30' W 132°12'2 0.2
2015-Jul-29 00:00N 14°31' W 132°09'2 0.3
2015-Jul-28 15:00N 14°29' W 132°08'4 0.5
2015-Jul-28 07:00N 14°27' W 132°05'1 0.8
2015-Jul-28 06:00N 14°27' W 132°04'2 0.4
2015-Jul-28 02:00N 14°26' W 132°03'7 0.5
2015-Jul-27 12:00N 14°23' W 131°56'4 0.4
2015-Jul-27 02:00N 14°21' W 131°53'2 0.6
2015-Jul-26 23:00N 14°20' W 131°51'1 0.5
2015-Jul-26 21:00N 14°20' W 131°50'1 0.3
2015-Jul-26 17:00N 14°19' W 131°49'1 1.3
2015-Jul-26 16:00N 14°18' W 131°48'0 0.1
2015-Jul-26 15:00N 14°18' W 131°48'1 0.5
2015-Jul-26 13:00N 14°18' W 131°47'0 0.0
2015-Jul-26 12:00N 14°18' W 131°47'1 1.1
2015-Jul-26 11:00N 14°17' W 131°46'3 0.6
2015-Jul-26 06:00N 14°16' W 131°44'  

Dump ship's entire track history